Time;durP1;ratioP1;P1;durP2;ratioP2;P2;SDS_P1;SDS_P2;PMS_P1;PMS_P2;Temp;Humidity;BMP_temperature;BMP_pressure;BME280_temperature;BME280_humidity;BME280_pressure;Samples;Min_cycle;Max_cycle;Signal;HPM_P1;HPM_P2
2021/06/17 00:00:41;;;;;;;17.13;15.43;;;27.90;58.10;;;;;;4988062;28;20438;-79
2021/06/17 00:03:11;;;;;;;16.93;15.03;;;27.90;57.60;;;;;;4988243;28;20474;-79
2021/06/17 00:05:41;;;;;;;19.60;15.40;;;27.70;57.10;;;;;;4993386;28;20509;-77
2021/06/17 00:08:09;;;;;;;18.23;16.37;;;27.60;57.60;;;;;;4999100;28;20411;-76
2021/06/17 00:10:38;;;;;;;17.53;15.73;;;27.50;58.40;;;;;;4989665;28;20474;-80
2021/06/17 00:13:07;;;;;;;18.60;15.83;;;27.60;58.40;;;;;;4987856;28;20533;-78
2021/06/17 00:15:37;;;;;;;19.43;17.17;;;27.50;58.70;;;;;;4987775;28;20411;-80
2021/06/17 00:18:06;;;;;;;19.17;16.40;;;27.50;58.40;;;;;;4990732;28;20530;-76
2021/06/17 00:20:34;;;;;;;17.70;15.17;;;27.40;58.40;;;;;;5000015;28;20437;-80
2021/06/17 00:23:02;;;;;;;19.13;17.10;;;27.30;59.00;;;;;;4991068;28;20517;-79
2021/06/17 00:25:30;;;;;;;18.93;16.90;;;27.20;59.10;;;;;;4976403;28;20433;-79
2021/06/17 00:27:58;;;;;;;17.70;15.90;;;27.10;59.40;;;;;;4976212;28;20444;-78
2021/06/17 00:30:26;;;;;;;19.27;17.20;;;26.90;60.00;;;;;;4977872;28;20511;-78
2021/06/17 00:32:59;;;;;;;21.00;17.60;;;27.20;59.70;;;;;;4997352;28;20453;-80
2021/06/17 00:35:28;;;;;;;20.10;17.87;;;27.10;59.80;;;;;;4992943;28;20482;-81
2021/06/17 00:37:56;;;;;;;19.30;17.30;;;26.90;59.90;;;;;;4996434;28;20416;-80
2021/06/17 00:40:25;;;;;;;19.13;16.43;;;27.10;60.10;;;;;;4993467;28;20482;-80
2021/06/17 00:42:53;;;;;;;18.70;16.80;;;27.00;60.10;;;;;;4997913;28;20486;-79
2021/06/17 00:45:22;;;;;;;18.13;16.30;;;26.90;60.00;;;;;;4987051;28;20585;-78
2021/06/17 00:47:50;;;;;;;18.97;17.00;;;26.90;61.00;;;;;;4993879;28;20211;-77
2021/06/17 00:50:21;;;;;;;19.87;17.70;;;27.00;60.70;;;;;;4992260;28;20508;-77
2021/06/17 00:52:51;;;;;;;21.53;17.53;;;26.70;60.60;;;;;;4998771;28;20432;-77
2021/06/17 00:55:19;;;;;;;21.30;17.60;;;26.80;61.20;;;;;;4994630;28;20495;-77
2021/06/17 00:57:47;;;;;;;21.93;19.40;;;26.40;61.70;;;;;;4989085;28;20445;-77
2021/06/17 01:00:18;;;;;;;20.20;18.13;;;26.40;62.10;;;;;;4989237;28;20461;-77
2021/06/17 01:02:45;;;;;;;18.73;16.70;;;26.60;61.70;;;;;;4992402;28;20441;-77
2021/06/17 01:05:16;;;;;;;30.70;19.30;;;26.30;61.90;;;;;;4982150;28;20496;-77
2021/06/17 01:07:49;;;;;;;19.90;17.80;;;26.30;62.40;;;;;;4986437;28;20478;-77
2021/06/17 01:10:25;;;;;;;20.07;17.97;;;26.20;62.50;;;;;;4986903;28;20536;-77
2021/06/17 01:12:59;;;;;;;19.43;17.43;;;26.20;63.60;;;;;;4986826;28;20457;-77
2021/06/17 01:15:27;;;;;;;20.30;18.10;;;26.30;62.50;;;;;;4986645;28;20473;-77
2021/06/17 01:17:56;;;;;;;21.07;18.20;;;26.40;63.20;;;;;;4989497;28;20419;-77
2021/06/17 01:20:27;;;;;;;27.13;16.70;;;26.20;63.40;;;;;;4986557;28;20452;-77
2021/06/17 01:23:02;;;;;;;21.20;17.83;;;26.20;63.40;;;;;;4986555;28;20517;-77
2021/06/17 01:25:38;;;;;;;18.13;16.23;;;26.10;63.30;;;;;;4986769;28;20543;-77
2021/06/17 01:28:11;;;;;;;24.40;18.80;;;26.30;63.20;;;;;;4985881;28;20422;-77
2021/06/17 01:30:47;;;;;;;21.50;18.13;;;26.30;62.90;;;;;;4986017;28;20424;-77
2021/06/17 01:33:15;;;;;;;20.73;17.57;;;26.50;63.00;;;;;;4985980;28;20466;-77
2021/06/17 01:35:45;;;;;;;25.60;18.80;;;25.90;63.70;;;;;;4986697;28;20461;-77
2021/06/17 01:38:14;;;;;;;20.30;18.10;;;25.90;64.50;;;;;;4985498;28;20440;-77
2021/06/17 01:40:42;;;;;;;25.73;18.97;;;25.70;64.80;;;;;;4989193;28;20466;-77
2021/06/17 01:43:11;;;;;;;24.67;18.60;;;25.90;65.30;;;;;;4994846;28;20469;-77
2021/06/17 01:45:39;;;;;;;44.97;36.10;;;25.80;65.00;;;;;;4985656;28;20443;-77
2021/06/17 01:48:08;;;;;;;57.80;42.53;;;25.60;65.70;;;;;;4985165;28;20499;-77
2021/06/17 01:50:36;;;;;;;25.53;21.50;;;25.40;66.30;;;;;;4984376;28;20481;-77
2021/06/17 01:53:04;;;;;;;23.10;19.60;;;25.20;67.10;;;;;;4985175;28;20504;-77
2021/06/17 01:55:33;;;;;;;20.33;17.93;;;25.50;67.00;;;;;;4984613;28;20440;-75
2021/06/17 01:58:05;;;;;;;19.23;17.03;;;25.90;66.40;;;;;;4977461;28;20423;-74
2021/06/17 02:00:34;;;;;;;20.80;17.83;;;25.40;66.30;;;;;;4982500;28;20436;-75
2021/06/17 02:03:03;;;;;;;21.60;19.30;;;25.50;66.80;;;;;;4988041;28;20465;-75
2021/06/17 02:05:31;;;;;;;25.07;17.50;;;25.70;67.40;;;;;;4988907;28;20420;-75
2021/06/17 02:07:59;;;;;;;19.33;17.17;;;25.50;66.80;;;;;;4985743;28;20514;-75
2021/06/17 02:10:28;;;;;;;21.03;17.70;;;25.20;67.60;;;;;;4984781;28;20455;-75
2021/06/17 02:12:56;;;;;;;21.10;18.93;;;25.30;68.20;;;;;;4984989;28;20412;-75
2021/06/17 02:15:27;;;;;;;21.67;18.70;;;25.40;67.90;;;;;;4985246;28;20528;-75
2021/06/17 02:17:57;;;;;;;22.47;20.17;;;25.70;67.50;;;;;;4985579;28;20420;-75
2021/06/17 02:20:24;;;;;;;22.07;17.20;;;25.50;67.40;;;;;;4980972;28;20539;-75
2021/06/17 02:22:54;;;;;;;21.40;19.20;;;25.40;68.20;;;;;;4985437;28;20434;-75
2021/06/17 02:25:22;;;;;;;21.40;18.50;;;25.50;67.40;;;;;;4985593;28;20470;-75
2021/06/17 02:27:54;;;;;;;22.93;18.93;;;25.40;68.10;;;;;;4985151;28;20487;-75
2021/06/17 02:30:22;;;;;;;21.57;19.20;;;25.40;68.40;;;;;;4985009;28;20501;-75
2021/06/17 02:32:50;;;;;;;23.10;19.27;;;25.50;68.20;;;;;;4985212;28;20519;-75
2021/06/17 02:35:21;;;;;;;21.40;19.03;;;25.40;68.40;;;;;;4984973;28;20433;-75
2021/06/17 02:37:50;;;;;;;22.30;19.93;;;25.50;68.10;;;;;;4985214;28;20457;-75
2021/06/17 02:40:18;;;;;;;24.90;19.13;;;25.40;67.90;;;;;;4984710;28;20412;-75
2021/06/17 02:43:02;;;;;;;22.43;18.50;;;25.10;68.60;;;;;;4984715;28;20484;-75
2021/06/17 02:45:31;;;;;;;24.97;19.00;;;25.20;69.50;;;;;;4984502;28;20444;-75
2021/06/17 02:47:59;;;;;;;20.73;18.63;;;25.40;69.00;;;;;;4985207;28;20433;-75
2021/06/17 02:50:28;;;;;;;27.80;18.43;;;25.60;67.50;;;;;;4984084;28;20463;-75
2021/06/17 02:52:56;;;;;;;21.53;18.17;;;25.50;67.90;;;;;;4985132;28;20506;-75
2021/06/17 02:55:24;;;;;;;25.33;17.57;;;25.40;68.00;;;;;;4985070;28;20457;-75
2021/06/17 02:58:01;;;;;;;23.30;20.90;;;25.30;69.00;;;;;;4984464;28;20440;-75
2021/06/17 03:00:31;;;;;;;22.80;19.80;;;25.00;69.40;;;;;;4984587;28;20527;-75
2021/06/17 03:03:07;;;;;;;22.80;19.50;;;25.30;69.30;;;;;;4984519;28;20445;-75
2021/06/17 03:05:39;;;;;;;20.73;18.50;;;25.40;69.20;;;;;;4984405;28;20440;-75
2021/06/17 03:08:12;;;;;;;24.17;18.97;;;25.30;68.50;;;;;;4984723;28;20408;-74
2021/06/17 03:10:40;;;;;;;22.23;19.77;;;24.80;70.00;;;;;;4984716;28;20542;-74
2021/06/17 03:13:08;;;;;;;26.63;19.47;;;24.70;71.10;;;;;;4984788;28;20523;-75
2021/06/17 03:15:37;;;;;;;19.97;17.87;;;24.80;71.50;;;;;;4984658;28;20535;-75
2021/06/17 03:18:08;;;;;;;25.00;19.83;;;24.70;71.50;;;;;;4984857;28;20445;-75
2021/06/17 03:20:39;;;;;;;22.83;17.97;;;24.80;71.80;;;;;;4984554;28;20533;-74
2021/06/17 03:23:08;;;;;;;22.73;19.57;;;25.00;71.50;;;;;;4984252;28;20484;-75
2021/06/17 03:25:37;;;;;;;23.97;18.90;;;25.00;71.80;;;;;;4984640;28;20536;-75
2021/06/17 03:28:05;;;;;;;21.77;19.47;;;25.10;70.50;;;;;;4984538;28;20519;-74
2021/06/17 03:30:33;;;;;;;19.87;17.77;;;24.80;72.00;;;;;;4984198;28;20448;-75
2021/06/17 03:33:01;;;;;;;23.83;19.53;;;24.60;72.10;;;;;;4984816;28;20500;-75
2021/06/17 03:35:31;;;;;;;23.70;19.70;;;24.60;73.40;;;;;;4984802;28;20511;-75
2021/06/17 03:38:01;;;;;;;21.90;18.73;;;24.80;72.10;;;;;;4984485;28;20465;-75
2021/06/17 03:40:29;;;;;;;23.50;18.93;;;24.90;71.40;;;;;;4983816;28;20499;-75
2021/06/17 03:42:58;;;;;;;24.20;20.17;;;24.70;72.00;;;;;;4984710;28;20485;-75
2021/06/17 03:45:26;;;;;;;22.03;19.70;;;24.50;73.90;;;;;;4984801;28;20532;-75
2021/06/17 03:47:54;;;;;;;28.30;19.40;;;24.40;73.70;;;;;;4984913;28;20519;-75
2021/06/17 03:50:23;;;;;;;20.93;18.60;;;24.50;74.00;;;;;;4984482;28;20572;-75
2021/06/17 03:52:51;;;;;;;22.57;19.80;;;24.20;74.90;;;;;;4984600;28;20540;-75
2021/06/17 03:55:21;;;;;;;24.47;19.77;;;24.30;74.70;;;;;;4984466;28;20445;-75
2021/06/17 03:57:49;;;;;;;23.47;20.47;;;24.30;76.40;;;;;;4984769;28;20523;-75
2021/06/17 04:00:17;;;;;;;23.93;19.73;;;24.30;75.50;;;;;;4982721;28;20533;-74
2021/06/17 04:02:45;;;;;;;23.03;19.90;;;24.40;74.60;;;;;;4991334;28;20499;-74
2021/06/17 04:05:14;;;;;;;23.37;20.60;;;24.60;73.90;;;;;;4983291;28;20438;-74
2021/06/17 04:07:43;;;;;;;25.07;20.60;;;24.50;74.30;;;;;;4981677;28;20486;-75
2021/06/17 04:10:11;;;;;;;21.07;18.83;;;25.10;73.40;;;;;;4982456;28;20552;-74
2021/06/17 04:12:41;;;;;;;23.50;19.70;;;24.70;73.40;;;;;;4984565;28;20448;-74
2021/06/17 04:15:10;;;;;;;23.70;20.10;;;24.60;74.50;;;;;;4987447;28;20449;-74
2021/06/17 04:17:39;;;;;;;25.00;20.17;;;24.60;75.10;;;;;;4986892;28;20468;-75
2021/06/17 04:20:10;;;;;;;22.40;19.83;;;24.60;74.90;;;;;;4987494;28;20442;-75
2021/06/17 04:22:39;;;;;;;26.10;21.97;;;24.60;74.60;;;;;;4987348;28;20462;-75
2021/06/17 04:25:07;;;;;;;22.53;19.57;;;24.60;75.20;;;;;;4987354;28;20530;-75
2021/06/17 04:27:36;;;;;;;21.50;19.20;;;24.50;74.80;;;;;;4987321;28;20449;-75
2021/06/17 04:30:06;;;;;;;22.70;20.30;;;24.50;75.30;;;;;;4987647;28;20548;-75
2021/06/17 04:32:35;;;;;;;27.63;21.40;;;24.40;76.20;;;;;;4987450;28;20475;-75
2021/06/17 04:35:09;;;;;;;22.37;19.27;;;24.60;75.20;;;;;;4987695;28;20415;-75
2021/06/17 04:37:37;;;;;;;21.60;19.20;;;24.80;75.70;;;;;;4987912;28;20438;-75
2021/06/17 04:40:06;;;;;;;22.67;20.13;;;25.00;74.20;;;;;;4987274;28;20437;-75
2021/06/17 04:42:34;;;;;;;26.30;21.70;;;25.10;74.00;;;;;;4987028;28;20441;-74
2021/06/17 04:45:02;;;;;;;23.73;20.93;;;25.10;74.10;;;;;;4986865;28;20545;-75
2021/06/17 04:47:31;;;;;;;24.43;21.63;;;25.20;74.00;;;;;;4987213;28;20445;-75
2021/06/17 04:50:00;;;;;;;23.97;20.03;;;25.30;72.90;;;;;;4987050;28;20424;-75
2021/06/17 04:52:35;;;;;;;22.10;19.80;;;25.40;72.30;;;;;;4986877;28;20481;-75
2021/06/17 04:55:03;;;;;;;22.70;20.20;;;25.20;73.60;;;;;;4986813;28;20408;-74
2021/06/17 04:57:31;;;;;;;25.03;19.33;;;25.40;73.60;;;;;;4986604;28;20514;-74
2021/06/17 04:59:59;;;;;;;22.77;20.47;;;25.30;73.90;;;;;;4986876;28;20467;-74
2021/06/17 05:02:27;;;;;;;34.30;27.57;;;25.20;73.50;;;;;;4986811;28;20459;-74
2021/06/17 05:04:56;;;;;;;40.03;32.93;;;25.40;74.00;;;;;;4986888;28;20446;-74
2021/06/17 05:12:59;;;;;;;27.93;20.57;;;25.40;72.90;;;;;;4986868;28;20636;-74
2021/06/17 05:15:27;;;;;;;35.33;19.83;;;25.60;73.20;;;;;;4986627;28;20453;-74
2021/06/17 05:17:55;;;;;;;36.10;20.23;;;25.70;72.50;;;;;;4986005;28;20404;-74
2021/06/17 05:20:26;;;;;;;23.83;19.30;;;25.40;73.30;;;;;;4986142;28;20449;-74
2021/06/17 05:22:54;;;;;;;26.47;22.37;;;25.50;74.60;;;;;;4986971;28;20491;-75
2021/06/17 05:25:24;;;;;;;34.33;21.37;;;25.80;73.10;;;;;;4986511;28;20504;-74
2021/06/17 05:27:52;;;;;;;29.20;21.20;;;25.80;73.20;;;;;;4986408;28;20441;-74
2021/06/17 05:30:21;;;;;;;23.27;19.90;;;25.80;72.90;;;;;;4986055;28;20496;-75
2021/06/17 05:32:49;;;;;;;25.10;21.00;;;25.60;74.10;;;;;;4985735;28;20559;-75
2021/06/17 05:35:17;;;;;;;22.53;19.90;;;25.80;73.50;;;;;;4985100;28;20446;-75
2021/06/17 05:37:50;;;;;;;29.43;21.10;;;26.30;72.30;;;;;;4985314;28;20470;-74
2021/06/17 05:40:18;;;;;;;27.13;19.30;;;26.30;71.60;;;;;;4984456;28;20475;-74
2021/06/17 05:42:46;;;;;;;27.40;19.00;;;26.30;72.10;;;;;;4984858;28;20453;-74
2021/06/17 05:45:15;;;;;;;21.80;18.90;;;26.30;72.10;;;;;;4985013;28;20407;-75
2021/06/17 05:47:45;;;;;;;21.83;19.43;;;26.20;72.30;;;;;;4985017;28;20416;-75
2021/06/17 05:50:13;;;;;;;20.53;17.63;;;26.20;72.40;;;;;;4985998;28;20424;-75
2021/06/17 05:52:41;;;;;;;20.50;16.40;;;26.30;72.00;;;;;;4985836;28;20531;-75
2021/06/17 05:55:14;;;;;;;21.27;16.40;;;26.30;72.60;;;;;;4985888;28;20412;-75
2021/06/17 05:57:42;;;;;;;18.27;15.33;;;26.70;71.60;;;;;;4985726;28;20477;-75
2021/06/17 06:00:11;;;;;;;22.63;17.03;;;26.90;70.10;;;;;;4985368;28;20416;-75
2021/06/17 06:02:41;;;;;;;21.00;17.13;;;26.70;69.90;;;;;;4985575;28;20416;-75
2021/06/17 06:05:10;;;;;;;21.73;16.90;;;26.60;70.40;;;;;;4985552;28;20415;-75
2021/06/17 06:07:39;;;;;;;18.83;15.70;;;26.50;69.40;;;;;;4986170;28;20469;-75
2021/06/17 06:10:08;;;;;;;24.63;16.07;;;26.20;71.20;;;;;;4985858;28;20411;-75
2021/06/17 06:12:37;;;;;;;19.13;15.20;;;26.60;70.70;;;;;;4985985;28;20504;-75
2021/06/17 06:15:07;;;;;;;18.03;15.00;;;26.60;70.00;;;;;;4985233;28;20440;-75
2021/06/17 06:17:35;;;;;;;26.60;14.70;;;26.80;69.90;;;;;;4985862;28;20445;-75
2021/06/17 06:20:05;;;;;;;27.90;15.77;;;26.90;69.40;;;;;;4985200;28;20420;-75
2021/06/17 06:22:33;;;;;;;37.43;15.80;;;26.80;68.30;;;;;;4985146;28;20458;-75
2021/06/17 06:25:01;;;;;;;28.93;14.53;;;26.60;69.10;;;;;;4985529;28;20428;-75
2021/06/17 06:27:30;;;;;;;18.73;14.13;;;26.70;68.80;;;;;;4985104;28;20427;-75
2021/06/17 06:30:03;;;;;;;21.27;12.67;;;26.70;68.50;;;;;;4984955;28;20482;-74
2021/06/17 06:32:31;;;;;;;19.90;13.60;;;26.60;68.60;;;;;;4984776;28;20439;-75
2021/06/17 06:34:59;;;;;;;14.10;12.70;;;27.10;68.00;;;;;;4985131;28;20431;-74
2021/06/17 06:37:27;;;;;;;14.30;13.00;;;27.20;66.60;;;;;;4984785;28;20446;-75
2021/06/17 06:39:55;;;;;;;18.73;12.67;;;27.30;66.30;;;;;;4985203;28;20420;-74
2021/06/17 06:42:23;;;;;;;21.10;13.50;;;27.30;66.40;;;;;;4985117;28;20462;-75
2021/06/17 06:44:51;;;;;;;17.43;12.00;;;27.30;65.10;;;;;;4985068;28;20420;-75
2021/06/17 06:47:20;;;;;;;31.50;14.00;;;27.20;65.00;;;;;;4985170;28;20451;-75
2021/06/17 06:49:48;;;;;;;35.63;13.10;;;27.10;66.00;;;;;;4984669;28;20483;-75
2021/06/17 06:52:16;;;;;;;18.00;12.50;;;27.20;65.90;;;;;;4984588;28;20469;-75
2021/06/17 06:54:44;;;;;;;13.93;12.30;;;27.50;65.60;;;;;;4984260;28;20454;-75
2021/06/17 06:57:12;;;;;;;16.63;11.97;;;27.50;64.10;;;;;;4985270;28;20455;-75
2021/06/17 06:59:41;;;;;;;18.40;11.97;;;27.40;64.20;;;;;;4984522;28;20449;-75
2021/06/17 07:02:09;;;;;;;12.40;11.17;;;27.70;64.00;;;;;;4984594;28;20511;-75
2021/06/17 07:04:38;;;;;;;13.07;11.73;;;28.00;63.70;;;;;;4984568;28;20484;-74
2021/06/17 07:07:07;;;;;;;13.87;10.80;;;28.10;63.40;;;;;;4984551;28;20453;-75
2021/06/17 07:09:35;;;;;;;14.67;11.30;;;28.40;62.70;;;;;;4984655;28;20510;-75
2021/06/17 07:12:04;;;;;;;13.43;11.23;;;28.50;62.30;;;;;;4984631;28;20452;-75
2021/06/17 07:14:32;;;;;;;15.90;11.20;;;28.60;62.00;;;;;;4984356;28;20449;-75
2021/06/17 07:17:01;;;;;;;13.10;11.60;;;28.40;61.30;;;;;;4984336;28;20424;-75
2021/06/17 07:19:30;;;;;;;11.87;10.67;;;28.30;61.60;;;;;;4984637;28;20478;-75
2021/06/17 07:21:59;;;;;;;15.77;10.70;;;28.30;61.50;;;;;;4984746;28;20408;-75
2021/06/17 07:24:32;;;;;;;12.83;10.53;;;28.60;60.40;;;;;;4984101;28;20441;-74
2021/06/17 07:27:00;;;;;;;13.17;10.87;;;28.80;60.00;;;;;;4984204;28;20449;-75
2021/06/17 07:29:28;;;;;;;11.53;10.43;;;28.90;59.60;;;;;;4984220;28;20481;-75
2021/06/17 07:31:56;;;;;;;13.00;10.43;;;28.70;59.60;;;;;;4992497;28;20453;-75
2021/06/17 07:34:24;;;;;;;22.70;11.70;;;28.90;59.00;;;;;;4997756;28;20445;-74
2021/06/17 07:36:53;;;;;;;20.60;11.37;;;28.70;59.30;;;;;;4997872;28;20432;-75
2021/06/17 07:39:23;;;;;;;14.30;10.43;;;29.10;58.70;;;;;;5003920;28;20448;-75
2021/06/17 07:41:51;;;;;;;16.03;9.90;;;29.00;58.20;;;;;;5003442;28;20461;-74
2021/06/17 07:44:19;;;;;;;12.67;10.57;;;29.30;58.70;;;;;;5004110;28;20522;-74
2021/06/17 07:46:47;;;;;;;16.40;10.43;;;29.20;57.80;;;;;;4995040;28;20445;-76
2021/06/17 07:49:24;;;;;;;21.70;10.20;;;29.30;57.80;;;;;;4997804;28;20471;-77
2021/06/17 07:51:52;;;;;;;13.50;9.80;;;30.00;56.80;;;;;;5000362;28;20433;-76
2021/06/17 07:54:20;;;;;;;14.67;8.40;;;30.40;55.80;;;;;;5002906;28;20498;-76
2021/06/17 07:56:50;;;;;;;17.97;8.57;;;30.60;55.00;;;;;;5000515;28;20481;-77
2021/06/17 07:59:22;;;;;;;12.60;8.33;;;30.80;54.40;;;;;;4991244;28;20437;-76
2021/06/17 08:01:55;;;;;;;11.10;7.70;;;30.80;54.00;;;;;;4987793;28;20445;-77
2021/06/17 08:04:26;;;;;;;13.13;8.60;;;30.90;54.10;;;;;;4987483;28;20505;-77
2021/06/17 08:06:54;;;;;;;9.87;8.87;;;31.00;53.70;;;;;;4988254;28;20460;-77
2021/06/17 08:09:22;;;;;;;9.00;8.27;;;31.00;53.60;;;;;;4987406;28;20452;-78
2021/06/17 08:11:59;;;;;;;9.60;8.80;;;31.00;53.40;;;;;;4988300;28;20476;-77
2021/06/17 08:14:30;;;;;;;12.43;8.07;;;31.00;53.30;;;;;;4987941;28;20444;-77
2021/06/17 08:17:00;;;;;;;9.70;8.73;;;31.10;53.30;;;;;;4988049;28;20496;-77
2021/06/17 08:19:32;;;;;;;9.20;8.03;;;31.10;53.20;;;;;;4987082;28;20588;-77
2021/06/17 08:22:04;;;;;;;11.53;8.70;;;31.10;53.20;;;;;;4987696;28;20544;-77
2021/06/17 08:24:34;;;;;;;8.80;8.00;;;31.10;53.10;;;;;;4996749;28;20526;-78
2021/06/17 08:27:04;;;;;;;9.47;8.60;;;31.20;53.10;;;;;;4989779;28;20456;-77
2021/06/17 08:29:33;;;;;;;11.13;7.80;;;31.30;53.00;;;;;;4986541;28;20508;-78
2021/06/17 08:32:08;;;;;;;8.60;7.90;;;31.30;52.90;;;;;;4986890;28;20516;-78
2021/06/17 08:34:37;;;;;;;9.23;8.30;;;31.30;52.80;;;;;;4987019;28;20580;-78
2021/06/17 08:37:08;;;;;;;8.70;7.77;;;31.40;52.80;;;;;;4985968;28;20412;-78
2021/06/17 08:39:37;;;;;;;8.90;8.10;;;31.40;53.40;;;;;;4986818;28;20487;-78
2021/06/17 08:42:07;;;;;;;9.53;7.50;;;31.50;52.70;;;;;;4986995;28;20437;-78
2021/06/17 08:44:38;;;;;;;7.57;6.80;;;31.60;52.70;;;;;;4986485;28;20488;-78
2021/06/17 08:47:07;;;;;;;8.77;7.97;;;31.60;52.70;;;;;;4986916;28;20457;-78
2021/06/17 08:49:35;;;;;;;8.50;7.67;;;31.60;52.50;;;;;;4986930;28;20429;-78
2021/06/17 08:52:07;;;;;;;8.17;7.50;;;31.70;52.40;;;;;;4986913;28;20437;-78
2021/06/17 08:54:37;;;;;;;11.40;7.73;;;31.70;52.20;;;;;;4986846;28;20460;-77
2021/06/17 08:57:09;;;;;;;9.53;7.47;;;31.80;52.20;;;;;;4986384;28;20441;-78
2021/06/17 08:59:41;;;;;;;10.60;7.73;;;31.90;52.30;;;;;;4986773;28;20468;-83
2021/06/17 09:02:09;;;;;;;8.10;6.90;;;31.90;52.20;;;;;;4997181;28;20448;-78
2021/06/17 09:04:37;;;;;;;8.20;7.40;;;32.00;52.20;;;;;;5001584;28;20477;-77
2021/06/17 09:07:07;;;;;;;7.17;6.67;;;32.10;52.00;;;;;;4994229;28;20429;-77
2021/06/17 09:09:40;;;;;;;7.63;7.03;;;32.10;51.80;;;;;;4985875;28;20477;-77
2021/06/17 09:12:11;;;;;;;7.10;6.60;;;32.20;51.90;;;;;;4986384;28;20448;-77
2021/06/17 09:14:59;;;;;;;8.27;7.37;;;32.20;51.70;;;;;;4976827;28;20422;-75
2021/06/17 09:17:27;;;;;;;8.03;7.40;;;32.30;51.70;;;;;;4973673;28;20505;-75
2021/06/17 09:19:55;;;;;;;6.90;6.30;;;32.40;51.40;;;;;;4990413;28;20449;-75
2021/06/17 09:22:31;;;;;;;7.17;6.67;;;32.40;51.20;;;;;;4994871;28;20430;-75
2021/06/17 09:24:59;;;;;;;7.13;6.53;;;32.50;51.10;;;;;;4983845;28;20510;-75
2021/06/17 09:27:30;;;;;;;7.37;6.77;;;32.60;51.10;;;;;;4991819;28;20441;-75
2021/06/17 09:29:59;;;;;;;9.90;6.93;;;32.60;50.90;;;;;;4994219;28;20448;-77
2021/06/17 09:32:27;;;;;;;9.73;6.93;;;32.70;51.00;;;;;;5000908;28;20444;-76
2021/06/17 09:34:57;;;;;;;7.33;6.70;;;32.80;50.80;;;;;;4996697;28;20437;-75
2021/06/17 09:37:33;;;;;;;6.97;6.47;;;32.80;50.70;;;;;;4992040;28;20433;-75
2021/06/17 09:40:16;;;;;;;6.00;5.60;;;32.90;50.60;;;;;;4994490;28;20426;-76
2021/06/17 09:42:46;;;;;;;7.07;6.57;;;33.00;50.60;;;;;;4993886;28;20468;-77
2021/06/17 09:45:16;;;;;;;6.80;6.10;;;33.10;50.50;;;;;;5002767;28;20472;-75
2021/06/17 09:47:45;;;;;;;6.67;6.27;;;33.20;50.40;;;;;;4987512;28;20437;-75
2021/06/17 09:50:23;;;;;;;6.97;6.30;;;33.20;50.40;;;;;;4985867;28;20480;-75
2021/06/17 09:52:52;;;;;;;6.43;6.03;;;33.30;50.30;;;;;;4985726;28;20518;-75
2021/06/17 09:55:37;;;;;;;10.40;6.73;;;33.40;50.20;;;;;;4995085;28;20871;-76
2021/06/17 09:58:08;;;;;;;9.10;7.00;;;33.70;48.70;;;;;;4988716;28;20499;-75
2021/06/17 10:00:36;;;;;;;7.07;6.40;;;34.00;47.60;;;;;;5005352;28;20433;-76
2021/06/17 10:03:19;;;;;;;7.27;6.67;;;34.10;46.50;;;;;;5005288;28;20449;-76
2021/06/17 10:05:47;;;;;;;8.00;6.13;;;34.30;46.00;;;;;;5005523;28;20472;-76
2021/06/17 10:08:17;;;;;;;8.47;6.70;;;34.20;46.20;;;;;;5005669;28;20425;-76
2021/06/17 10:10:45;;;;;;;6.70;6.20;;;34.10;46.30;;;;;;4992685;28;20511;-77
2021/06/17 10:13:15;;;;;;;7.70;6.63;;;34.20;46.50;;;;;;4985187;28;20511;-76
2021/06/17 10:15:43;;;;;;;6.90;6.10;;;34.30;46.10;;;;;;4994263;28;20464;-75
2021/06/17 10:18:11;;;;;;;6.87;6.30;;;34.50;45.80;;;;;;4996788;28;20472;-75
2021/06/17 10:20:40;;;;;;;8.10;6.93;;;34.50;45.50;;;;;;4995679;28;20451;-78
2021/06/17 10:23:08;;;;;;;6.70;6.07;;;34.80;44.70;;;;;;4982987;28;20553;-79
2021/06/17 10:25:36;;;;;;;11.30;6.20;;;34.80;44.40;;;;;;5001899;28;20496;-77
2021/06/17 10:28:04;;;;;;;6.90;6.40;;;34.90;43.90;;;;;;4986621;28;20444;-79
2021/06/17 10:30:42;;;;;;;6.57;6.17;;;35.00;43.40;;;;;;4984832;28;20445;-86
2021/06/17 10:33:28;;;;;;;6.50;6.00;;;34.90;43.30;;;;;;4985041;28;20453;-86
2021/06/17 10:36:37;;;;;;;6.83;6.33;;;35.00;43.20;;;;;;4985178;28;20461;-79
2021/06/17 10:39:17;;;;;;;8.50;5.60;;;35.10;42.60;;;;;;4985055;28;20492;-79
2021/06/17 10:42:17;;;;;;;17.03;5.67;;;35.20;42.10;;;;;;4984744;28;20444;-80
2021/06/17 10:44:55;;;;;;;8.70;4.87;;;35.40;41.90;;;;;;4983876;28;20575;-78
2021/06/17 10:47:56;;;;;;;5.43;4.90;;;35.40;41.70;;;;;;4983856;28;20437;-78
2021/06/17 10:50:29;;;;;;;6.20;5.07;;;35.50;40.60;;;;;;4983621;28;20444;-74
2021/06/17 10:53:25;;;;;;;5.70;5.00;;;35.70;40.00;;;;;;4983619;28;20512;-74
2021/06/17 10:55:55;;;;;;;5.17;4.50;;;35.80;39.30;;;;;;4993059;28;20433;-74
2021/06/17 10:59:02;;;;;;;4.47;4.07;;;36.00;38.40;;;;;;4991923;28;20504;-72
2021/06/17 11:01:32;;;;;;;5.10;4.60;;;36.00;37.90;;;;;;4988410;28;20471;-79
2021/06/17 11:04:04;;;;;;;8.93;4.20;;;35.90;38.20;;;;;;4990785;28;20479;-73
2021/06/17 11:07:11;;;;;;;8.13;4.73;;;36.00;37.20;;;;;;4994598;28;20478;-81
2021/06/17 11:09:44;;;;;;;4.93;3.90;;;36.00;37.00;;;;;;4990584;28;20520;-79
2021/06/17 11:12:54;;;;;;;5.17;4.20;;;36.20;36.50;;;;;;4996524;28;20544;-79
2021/06/17 11:15:37;;;;;;;8.70;4.10;;;36.30;36.20;;;;;;4985415;28;20446;-79
2021/06/17 11:18:06;;;;;;;4.50;4.20;;;36.30;35.70;;;;;;4996153;28;20473;-79
2021/06/17 11:20:39;;;;;;;9.37;4.10;;;36.40;35.70;;;;;;4991571;28;20449;-78
2021/06/17 11:23:10;;;;;;;5.20;4.40;;;36.50;35.30;;;;;;4974586;28;20445;-78
2021/06/17 11:25:45;;;;;;;8.13;3.97;;;36.40;35.10;;;;;;4969049;28;20546;-79
2021/06/17 11:28:18;;;;;;;3.77;3.57;;;36.50;35.00;;;;;;4968842;28;20512;-81
2021/06/17 11:30:58;;;;;;;5.53;4.00;;;36.60;35.00;;;;;;4968852;28;20442;-80
2021/06/17 11:33:47;;;;;;;6.30;3.70;;;36.60;35.00;;;;;;4973495;28;20461;-79
2021/06/17 11:36:20;;;;;;;7.33;3.50;;;36.70;33.80;;;;;;4996388;28;20476;-79
2021/06/17 11:38:52;;;;;;;12.83;4.40;;;36.80;33.90;;;;;;4996903;28;20445;-80
2021/06/17 11:41:41;;;;;;;7.10;3.50;;;36.80;33.50;;;;;;4989075;28;20535;-78
2021/06/17 11:44:09;;;;;;;7.23;3.40;;;36.90;33.00;;;;;;4988561;28;20445;-76
2021/06/17 11:46:38;;;;;;;6.00;3.60;;;36.90;33.10;;;;;;4988273;28;20452;-77
2021/06/17 11:49:23;;;;;;;7.60;4.00;;;36.90;33.10;;;;;;4991371;28;20471;-78
2021/06/17 11:51:53;;;;;;;5.57;3.60;;;37.00;33.10;;;;;;4995105;28;20499;-78
2021/06/17 11:54:25;;;;;;;4.00;3.77;;;37.20;32.90;;;;;;4998975;28;20508;-79
2021/06/17 11:56:54;;;;;;;5.13;3.53;;;37.20;33.00;;;;;;4994770;28;20490;-75
2021/06/17 11:59:24;;;;;;;4.17;3.73;;;37.20;33.00;;;;;;4998346;28;20445;-76
2021/06/17 12:02:03;;;;;;;4.70;4.17;;;37.10;33.30;;;;;;4994874;28;20464;-77
2021/06/17 12:04:47;;;;;;;9.20;3.97;;;37.20;32.90;;;;;;4996923;28;20541;-77
2021/06/17 12:07:19;;;;;;;8.33;3.93;;;37.30;32.60;;;;;;4994948;28;20452;-77
2021/06/17 12:09:51;;;;;;;4.87;4.57;;;37.20;32.90;;;;;;4996243;28;20533;-76
2021/06/17 12:12:20;;;;;;;9.00;4.27;;;37.30;32.70;;;;;;4995723;28;20436;-77
2021/06/17 12:14:50;;;;;;;3.90;3.60;;;37.30;33.40;;;;;;4991281;28;20440;-77
2021/06/17 12:17:32;;;;;;;6.53;3.90;;;37.40;32.80;;;;;;4994417;28;20536;-77
2021/06/17 12:20:01;;;;;;;4.67;4.27;;;37.40;32.90;;;;;;4991818;28;20441;-76
2021/06/17 12:22:32;;;;;;;4.50;4.10;;;37.40;32.90;;;;;;4998009;28;20449;-77
2021/06/17 12:25:03;;;;;;;5.63;4.10;;;37.50;32.90;;;;;;4997634;28;20473;-77
2021/06/17 12:27:32;;;;;;;4.80;4.40;;;37.50;33.00;;;;;;5004899;28;20447;-77
2021/06/17 12:30:28;;;;;;;4.60;4.40;;;37.40;33.50;;;;;;5007227;28;20495;-77
2021/06/17 12:32:56;;;;;;;7.43;4.20;;;37.40;33.70;;;;;;5007279;28;20472;-77
2021/06/17 12:35:24;;;;;;;6.20;4.13;;;37.40;33.50;;;;;;5003456;28;20483;-77
2021/06/17 12:37:58;;;;;;;6.00;4.80;;;37.50;33.60;;;;;;5006938;28;20444;-77
2021/06/17 12:40:34;;;;;;;8.30;4.60;;;37.50;33.40;;;;;;4993437;28;20476;-76
2021/06/17 12:43:03;;;;;;;5.53;4.10;;;37.50;33.50;;;;;;4985361;28;20445;-76
2021/06/17 12:45:31;;;;;;;4.67;4.10;;;37.60;33.40;;;;;;4996926;28;20530;-76
2021/06/17 12:48:07;;;;;;;17.23;3.83;;;37.60;32.20;;;;;;4996937;28;20483;-76
2021/06/17 12:53:22;;;;;;;4.27;3.87;;;37.60;31.40;;;;;;4996399;28;20461;-76
2021/06/17 12:55:55;;;;;;;3.80;3.67;;;37.60;31.30;;;;;;4995402;28;20422;-76
2021/06/17 12:58:24;;;;;;;4.20;3.80;;;37.70;31.30;;;;;;4992853;28;20434;-76
2021/06/17 13:00:56;;;;;;;4.17;3.87;;;37.70;31.10;;;;;;4988339;28;20503;-76